Terminal Aerodrome Forecast
Issued by NWS

Home | Current Version | Previous Version | Text Only | Print | Product List | Glossary On
Versions: 1 2 3 4 5 6 7 8 9 10 11 12 13 14 15 16 17 18 19 20
000
FTUS44 KLZK 161500 AAB
TAFBPK
TAF AMD
KBPK 161528Z 1615/1712 06004KT P6SM OVC015
     FM162100 06004KT P6SM BKN022 OVC080
     FM170000 12003KT P6SM SCT060 SCT250
     FM170800 13003KT P6SM BKN060=

USA.gov is the U.S. government's official web portal to all federal, state and local government web resources and services.